Time;durP1;ratioP1;P1;durP2;ratioP2;P2;SDS_P1;SDS_P2;PMS_P1;PMS_P2;Temp;Humidity;BMP_temperature;BMP_pressure;BME280_temperature;BME280_humidity;BME280_pressure;Samples;Min_cycle;Max_cycle;Signal;HPM_P1;HPM_P2
2023/06/16 00:00:50;;;;;;;23.63;15.25;;;;;;;;;;6256573;28;20052;-55
2023/06/16 00:04:12;;;;;;;22.88;14.35;;;;;;;;;;6260202;28;20047;-55
2023/06/16 00:07:13;;;;;;;22.92;14.30;;;;;;;;;;6258423;28;20049;-56
2023/06/16 00:10:13;;;;;;;26.52;15.35;;;;;;;;;;6265883;28;20063;-56
2023/06/16 00:13:14;;;;;;;24.60;15.55;;;;;;;;;;6264214;28;20729;-54
2023/06/16 00:16:19;;;;;;;26.42;14.05;;;;;;;;;;6263741;28;20614;-54
2023/06/16 00:19:21;;;;;;;23.95;15.07;;;;;;;;;;6265735;28;20967;-53
2023/06/16 00:22:25;;;;;;;24.17;14.35;;;;;;;;;;6265340;28;20041;-55
2023/06/16 00:25:25;;;;;;;24.75;14.18;;;;;;;;;;6263055;28;20045;-54
2023/06/16 00:28:26;;;;;;;25.63;15.98;;;;;;;;;;6266293;28;20052;-53
2023/06/16 00:31:27;;;;;;;23.38;14.45;;;;;;;;;;6267337;28;20029;-55
2023/06/16 00:34:27;;;;;;;20.55;14.10;;;;;;;;;;6264691;28;20053;-52
2023/06/16 00:37:28;;;;;;;23.65;14.88;;;;;;;;;;6261851;28;20131;-60
2023/06/16 00:40:29;;;;;;;21.98;14.55;;;;;;;;;;6266333;28;20407;-56
2023/06/16 00:43:30;;;;;;;28.52;16.45;;;;;;;;;;6265789;28;20561;-55
2023/06/16 00:46:35;;;;;;;30.50;16.60;;;;;;;;;;6265482;28;20526;-54
2023/06/16 00:49:36;;;;;;;28.52;16.27;;;;;;;;;;6266392;28;20511;-54
2023/06/16 00:52:38;;;;;;;25.55;16.10;;;;;;;;;;6265904;28;20102;-51
2023/06/16 00:55:40;;;;;;;36.00;20.15;;;;;;;;;;6266358;28;20139;-56
2023/06/16 00:58:40;;;;;;;29.02;17.27;;;;;;;;;;6267199;28;20049;-56
2023/06/16 01:01:41;;;;;;;27.63;15.40;;;;;;;;;;6266811;28;20076;-55
2023/06/16 01:04:41;;;;;;;26.85;14.75;;;;;;;;;;6264295;28;20492;-57
2023/06/16 01:08:00;;;;;;;31.10;14.77;;;;;;;;;;6265867;28;20393;-56
2023/06/16 01:11:11;;;;;;;24.88;13.90;;;;;;;;;;6266972;28;20048;-54
2023/06/16 01:14:15;;;;;;;26.13;14.52;;;;;;;;;;6266442;28;20076;-51
2023/06/16 01:17:17;;;;;;;25.90;14.50;;;;;;;;;;6263558;28;20069;-55
2023/06/16 01:20:24;;;;;;;28.52;15.27;;;;;;;;;;6262540;28;20040;-58
2023/06/16 01:24:05;;;;;;;25.58;16.38;;;;;;;;;;6260826;28;20041;-54
2023/06/16 01:27:08;;;;;;;27.15;15.43;;;;;;;;;;6256530;28;20472;-54
2023/06/16 01:30:09;;;;;;;25.30;14.65;;;;;;;;;;6254089;28;20151;-55
2023/06/16 01:33:12;;;;;;;23.45;14.70;;;;;;;;;;6257179;28;20419;-54
2023/06/16 01:36:15;;;;;;;26.30;15.25;;;;;;;;;;6256248;28;20045;-53
2023/06/16 01:39:18;;;;;;;23.33;14.93;;;;;;;;;;6256642;28;20055;-55
2023/06/16 01:42:18;;;;;;;26.13;14.75;;;;;;;;;;6261384;28;20522;-55
2023/06/16 01:45:20;;;;;;;25.98;15.70;;;;;;;;;;6260913;28;20617;-52
2023/06/16 01:48:21;;;;;;;26.35;16.30;;;;;;;;;;6259265;28;20041;-54
2023/06/16 01:51:22;;;;;;;24.90;14.88;;;;;;;;;;6257038;28;20053;-54
2023/06/16 01:54:23;;;;;;;25.48;15.05;;;;;;;;;;6257483;28;20538;-53
2023/06/16 01:57:25;;;;;;;26.15;15.43;;;;;;;;;;6256667;28;20404;-54
2023/06/16 02:00:27;;;;;;;;;;;;;;;;;;6258459;28;20052;-53
2023/06/16 02:03:40;;;;;;;25.60;14.30;;;;;;;;;;6257004;28;20360;-50
2023/06/16 02:06:59;;;;;;;23.85;14.38;;;;;;;;;;6256113;28;20045;-55
2023/06/16 02:10:01;;;;;;;22.95;14.13;;;;;;;;;;6254821;28;20194;-53
2023/06/16 02:13:02;;;;;;;23.40;14.63;;;;;;;;;;6258721;28;20548;-50
2023/06/16 02:16:05;;;;;;;28.20;15.00;;;;;;;;;;6259251;28;20521;-54
2023/06/16 02:19:06;;;;;;;25.95;15.43;;;;;;;;;;6256058;28;20156;-50
2023/06/16 02:22:06;;;;;;;26.92;14.88;;;;;;;;;;6256146;28;20060;-51
2023/06/16 02:25:07;;;;;;;28.27;16.52;;;;;;;;;;6255973;28;20526;-53
2023/06/16 02:28:08;;;;;;;25.20;14.13;;;;;;;;;;6258669;28;20045;-50
2023/06/16 02:31:10;;;;;;;26.50;16.23;;;;;;;;;;6253375;28;20052;-52
2023/06/16 02:34:10;;;;;;;;;;;;;;;;;;6257065;28;20143;-52
2023/06/16 02:37:13;;;;;;;24.58;15.63;;;;;;;;;;6257245;28;20367;-52
2023/06/16 02:40:13;;;;;;;27.73;16.02;;;;;;;;;;6254639;28;20052;-52
2023/06/16 02:43:14;;;;;;;23.95;14.65;;;;;;;;;;6256785;28;20124;-52
2023/06/16 02:46:14;;;;;;;24.98;15.02;;;;;;;;;;6255114;28;20134;-52
2023/06/16 02:49:16;;;;;;;23.95;14.50;;;;;;;;;;6256254;28;20045;-56
2023/06/16 02:52:17;;;;;;;;;;;;;;;;;;6253266;28;20052;-53
2023/06/16 02:55:18;;;;;;;23.30;14.70;;;;;;;;;;6259597;28;20370;-54
2023/06/16 02:58:20;;;;;;;26.40;15.88;;;;;;;;;;6256503;28;20103;-51
2023/06/16 03:01:25;;;;;;;25.15;16.35;;;;;;;;;;6253441;28;20110;-51
2023/06/16 03:04:25;;;;;;;27.58;16.98;;;;;;;;;;6254760;28;20047;-54
2023/06/16 03:07:31;;;;;;;28.15;16.33;;;;;;;;;;6260933;28;20559;-55
2023/06/16 03:10:31;;;;;;;29.67;16.15;;;;;;;;;;6260591;28;20056;-54
2023/06/16 03:13:32;;;;;;;28.75;17.00;;;;;;;;;;6260844;28;20040;-52
2023/06/16 03:16:33;;;;;;;27.48;17.02;;;;;;;;;;6260050;28;20142;-54
2023/06/16 03:19:33;;;;;;;32.40;17.83;;;;;;;;;;6259521;28;20075;-54
2023/06/16 03:22:35;;;;;;;28.25;16.73;;;;;;;;;;6261186;28;20037;-55
2023/06/16 03:25:36;;;;;;;27.98;17.85;;;;;;;;;;6260417;28;20064;-52
2023/06/16 03:28:38;;;;;;;27.98;16.48;;;;;;;;;;6260376;28;20056;-55
2023/06/16 03:31:39;;;;;;;24.85;15.77;;;;;;;;;;6259543;28;20067;-55
2023/06/16 03:34:39;;;;;;;30.03;15.33;;;;;;;;;;6260735;28;20412;-53
2023/06/16 03:37:40;;;;;;;25.98;15.30;;;;;;;;;;6259374;28;20313;-54
2023/06/16 03:40:40;;;;;;;26.63;15.80;;;;;;;;;;6258020;28;20057;-54
2023/06/16 03:43:41;;;;;;;26.38;16.38;;;;;;;;;;6259407;28;20071;-54
2023/06/16 03:46:42;;;;;;;23.60;16.20;;;;;;;;;;6261071;28;20120;-56
2023/06/16 03:49:42;;;;;;;28.15;16.33;;;;;;;;;;6261260;28;20501;-53
2023/06/16 03:52:43;;;;;;;23.30;16.08;;;;;;;;;;6258296;28;20102;-53
2023/06/16 03:55:43;;;;;;;26.20;17.13;;;;;;;;;;6264054;28;21451;-51
2023/06/16 03:58:44;;;;;;;27.70;18.15;;;;;;;;;;6262767;28;20043;-54
2023/06/16 04:01:46;;;;;;;28.15;16.80;;;;;;;;;;6258904;28;20520;-52
2023/06/16 04:04:47;;;;;;;;;;;;;;;;;;6260446;28;20804;-49
2023/06/16 04:07:47;;;;;;;26.90;16.45;;;;;;;;;;6259017;28;19950;-55
2023/06/16 04:10:49;;;;;;;30.80;16.10;;;;;;;;;;6259116;28;20045;-53
2023/06/16 04:13:49;;;;;;;26.55;16.48;;;;;;;;;;6259915;28;20045;-55
2023/06/16 04:16:50;;;;;;;30.45;17.95;;;;;;;;;;6263277;28;20094;-54
2023/06/16 04:19:50;;;;;;;33.97;20.00;;;;;;;;;;6258731;28;20087;-53
2023/06/16 04:22:51;;;;;;;35.65;20.92;;;;;;;;;;6255992;28;20413;-59
2023/06/16 04:25:52;;;;;;;28.92;19.40;;;;;;;;;;6259569;28;20049;-58
2023/06/16 04:28:55;;;;;;;34.00;19.77;;;;;;;;;;6259935;28;20449;-60
2023/06/16 04:31:59;;;;;;;31.90;18.95;;;;;;;;;;6255974;28;20088;-58
2023/06/16 04:35:04;;;;;;;30.00;17.77;;;;;;;;;;6260852;28;20059;-59
2023/06/16 04:38:04;;;;;;;26.52;17.27;;;;;;;;;;6259425;28;20075;-59
2023/06/16 04:41:05;;;;;;;28.85;17.38;;;;;;;;;;6256488;28;20067;-58
2023/06/16 04:44:07;;;;;;;30.20;17.30;;;;;;;;;;6258232;28;20081;-58
2023/06/16 04:47:09;;;;;;;27.83;17.30;;;;;;;;;;6257681;28;20045;-58
2023/06/16 04:50:10;;;;;;;27.65;16.65;;;;;;;;;;6257101;28;20043;-58
2023/06/16 04:53:11;;;;;;;27.73;15.98;;;;;;;;;;6258697;28;20583;-58
2023/06/16 04:56:11;;;;;;;24.60;15.95;;;;;;;;;;6257449;28;20057;-59
2023/06/16 04:59:12;;;;;;;27.80;15.73;;;;;;;;;;6258406;28;20041;-57
2023/06/16 05:02:14;;;;;;;29.80;15.95;;;;;;;;;;6258267;28;20049;-59
2023/06/16 05:05:15;;;;;;;23.17;14.27;;;;;;;;;;6259342;28;20055;-60
2023/06/16 05:08:15;;;;;;;27.55;16.33;;;;;;;;;;6259411;28;20037;-58
2023/06/16 05:11:16;;;;;;;28.55;14.55;;;;;;;;;;6255436;28;20076;-52
2023/06/16 05:14:16;;;;;;;23.48;13.60;;;;;;;;;;6256729;28;20377;-58
2023/06/16 05:17:17;;;;;;;18.00;11.60;;;;;;;;;;6257717;28;20079;-55
2023/06/16 05:20:17;;;;;;;19.13;11.43;;;;;;;;;;6263365;28;20033;-59
2023/06/16 05:23:18;;;;;;;18.95;11.07;;;;;;;;;;6262718;28;20041;-54
2023/06/16 05:26:22;;;;;;;21.17;11.50;;;;;;;;;;6259439;28;20045;-55
2023/06/16 05:29:22;;;;;;;17.77;10.27;;;;;;;;;;6258164;28;20132;-54
2023/06/16 05:32:23;;;;;;;17.92;11.10;;;;;;;;;;6259318;28;20497;-53
2023/06/16 05:35:24;;;;;;;19.05;10.45;;;;;;;;;;6256094;28;20079;-54
2023/06/16 05:38:24;;;;;;;19.02;10.57;;;;;;;;;;6256194;28;20045;-61
2023/06/16 05:41:26;;;;;;;20.27;10.75;;;;;;;;;;6254457;28;20167;-55
2023/06/16 05:44:26;;;;;;;21.50;10.80;;;;;;;;;;6257042;28;20072;-56
2023/06/16 05:47:27;;;;;;;17.25;10.90;;;;;;;;;;6257090;28;20136;-59
2023/06/16 05:50:27;;;;;;;18.13;10.13;;;;;;;;;;6257385;28;20048;-59
2023/06/16 05:53:28;;;;;;;17.38;10.95;;;;;;;;;;6257197;28;20045;-57
2023/06/16 05:56:28;;;;;;;18.13;11.00;;;;;;;;;;6256611;28;20053;-54
2023/06/16 05:59:29;;;;;;;19.80;10.73;;;;;;;;;;6255553;28;20049;-58
2023/06/16 06:02:30;;;;;;;18.70;10.93;;;;;;;;;;6255562;28;20041;-59
2023/06/16 06:05:31;;;;;;;19.90;11.48;;;;;;;;;;6257069;28;20095;-58
2023/06/16 06:08:31;;;;;;;20.02;10.45;;;;;;;;;;6257379;28;20534;-55
2023/06/16 06:11:32;;;;;;;19.55;10.35;;;;;;;;;;6255972;28;20049;-58
2023/06/16 06:14:32;;;;;;;16.30;10.23;;;;;;;;;;6256570;28;20045;-64
2023/06/16 06:17:33;;;;;;;18.77;10.27;;;;;;;;;;6255625;28;20511;-57
2023/06/16 06:20:34;;;;;;;18.85;10.20;;;;;;;;;;6258613;28;20037;-57
2023/06/16 06:23:34;;;;;;;19.17;11.38;;;;;;;;;;6258957;28;20140;-55
2023/06/16 06:26:38;;;;;;;19.67;10.80;;;;;;;;;;6258406;28;20349;-59
2023/06/16 06:29:39;;;;;;;20.23;10.55;;;;;;;;;;6258439;28;20317;-60
2023/06/16 06:32:40;;;;;;;18.83;11.15;;;;;;;;;;6255514;28;20051;-60
2023/06/16 06:35:40;;;;;;;17.17;11.25;;;;;;;;;;6256850;28;20544;-61
2023/06/16 06:38:41;;;;;;;22.38;11.07;;;;;;;;;;6256595;28;20045;-60
2023/06/16 06:41:42;;;;;;;17.88;11.50;;;;;;;;;;6255957;28;20421;-60
2023/06/16 06:44:42;;;;;;;22.50;11.25;;;;;;;;;;6257246;28;20444;-60
2023/06/16 06:47:43;;;;;;;19.10;11.07;;;;;;;;;;6256544;28;20513;-59
2023/06/16 06:50:44;;;;;;;27.75;13.35;;;;;;;;;;6254264;28;20052;-61
2023/06/16 06:53:44;;;;;;;22.10;12.57;;;;;;;;;;6253514;28;20059;-60
2023/06/16 06:56:45;;;;;;;24.47;11.83;;;;;;;;;;6254745;28;20056;-59
2023/06/16 06:59:46;;;;;;;20.57;10.80;;;;;;;;;;6254496;28;20476;-61
2023/06/16 07:02:46;;;;;;;23.83;11.17;;;;;;;;;;6258615;28;20045;-60
2023/06/16 07:05:47;;;;;;;19.17;10.67;;;;;;;;;;6256616;28;20048;-60
2023/06/16 07:08:47;;;;;;;21.20;11.63;;;;;;;;;;6255569;28;20507;-58
2023/06/16 07:11:48;;;;;;;20.93;11.93;;;;;;;;;;6253669;28;20504;-61
2023/06/16 07:14:48;;;;;;;25.87;12.47;;;;;;;;;;6255737;28;20044;-59
2023/06/16 07:17:49;;;;;;;19.03;11.40;;;;;;;;;;6257096;28;20056;-61
2023/06/16 07:20:50;;;;;;;19.23;12.23;;;;;;;;;;6252533;28;20045;-59
2023/06/16 07:23:50;;;;;;;21.90;11.40;;;;;;;;;;6253712;28;20045;-60
2023/06/16 07:26:51;;;;;;;22.47;11.80;;;;;;;;;;6256891;28;20037;-60
2023/06/16 07:29:52;;;;;;;21.38;12.70;;;;;;;;;;6255774;28;20037;-60
2023/06/16 07:32:54;;;;;;;20.63;13.17;;;;;;;;;;6257567;28;20557;-59
2023/06/16 07:35:55;;;;;;;20.20;12.73;;;;;;;;;;6256028;28;20061;-60
2023/06/16 07:38:55;;;;;;;22.30;13.20;;;;;;;;;;6254762;28;20651;-59
2023/06/16 07:41:56;;;;;;;24.13;13.00;;;;;;;;;;6254866;28;20111;-60
2023/06/16 07:44:56;;;;;;;22.43;13.57;;;;;;;;;;6255878;28;20103;-59
2023/06/16 07:47:58;;;;;;;23.70;12.63;;;;;;;;;;6256322;28;21344;-59
2023/06/16 07:50:59;;;;;;;23.90;13.55;;;;;;;;;;6264713;28;20053;-59
2023/06/16 07:53:59;;;;;;;24.93;13.37;;;;;;;;;;6264105;28;20045;-59
2023/06/16 07:57:00;;;;;;;26.50;14.07;;;;;;;;;;6260979;28;20510;-59
2023/06/16 08:00:02;;;;;;;27.63;14.23;;;;;;;;;;6260226;28;20044;-60
2023/06/16 08:03:03;;;;;;;24.95;14.38;;;;;;;;;;6259534;28;20044;-60
2023/06/16 08:06:05;;;;;;;23.90;13.73;;;;;;;;;;6260490;28;20052;-60
2023/06/16 08:09:07;;;;;;;22.85;13.73;;;;;;;;;;6257136;28;20180;-60
2023/06/16 08:12:12;;;;;;;23.80;13.57;;;;;;;;;;6259684;28;20063;-60
2023/06/16 08:15:12;;;;;;;19.80;13.30;;;;;;;;;;6259276;28;20374;-59
2023/06/16 08:18:13;;;;;;;19.60;14.00;;;;;;;;;;6258565;28;20111;-60
2023/06/16 08:21:13;;;;;;;20.90;13.63;;;;;;;;;;6260112;28;20049;-59
2023/06/16 08:24:14;;;;;;;24.50;14.70;;;;;;;;;;6259836;28;20203;-59
2023/06/16 08:27:15;;;;;;;27.47;15.10;;;;;;;;;;6259556;28;20040;-60
2023/06/16 08:30:16;;;;;;;21.93;13.10;;;;;;;;;;6256478;28;20331;-60
2023/06/16 08:33:16;;;;;;;23.80;14.07;;;;;;;;;;6258964;28;20041;-60
2023/06/16 08:36:19;;;;;;;23.20;14.23;;;;;;;;;;6260266;28;20090;-59
2023/06/16 08:39:20;;;;;;;25.20;14.85;;;;;;;;;;6258951;28;20049;-60
2023/06/16 08:42:21;;;;;;;25.37;16.13;;;;;;;;;;6264073;28;20550;-60
2023/06/16 08:45:22;;;;;;;27.37;15.33;;;;;;;;;;6259375;28;20056;-59
2023/06/16 08:48:23;;;;;;;24.13;15.95;;;;;;;;;;6258953;28;20041;-59
2023/06/16 08:51:26;;;;;;;23.53;14.70;;;;;;;;;;6258370;28;20049;-60
2023/06/16 08:54:34;;;;;;;24.08;15.07;;;;;;;;;;6260514;28;20041;-60
2023/06/16 08:57:42;;;;;;;34.45;18.23;;;;;;;;;;6258822;28;20052;-59
2023/06/16 09:00:43;;;;;;;27.48;16.52;;;;;;;;;;6259823;28;20043;-60
2023/06/16 09:03:47;;;;;;;25.97;15.93;;;;;;;;;;6258595;28;20493;-59
2023/06/16 09:06:48;;;;;;;22.75;15.23;;;;;;;;;;6259092;28;20508;-60
2023/06/16 09:09:49;;;;;;;25.00;16.40;;;;;;;;;;6256641;28;20041;-59
2023/06/16 09:12:52;;;;;;;28.47;16.27;;;;;;;;;;6257351;28;20048;-59
2023/06/16 09:15:56;;;;;;;25.40;15.40;;;;;;;;;;6257206;28;20051;-60
2023/06/16 09:19:06;;;;;;;23.63;13.32;;;;;;;;;;6259549;28;20056;-60
2023/06/16 09:22:10;;;;;;;21.48;13.15;;;;;;;;;;6255601;28;20144;-59
2023/06/16 09:25:13;;;;;;;22.50;13.85;;;;;;;;;;6257185;28;20424;-58
2023/06/16 09:28:15;;;;;;;21.23;12.77;;;;;;;;;;6258406;28;20037;-60
2023/06/16 09:31:15;;;;;;;22.40;12.77;;;;;;;;;;6260226;28;20052;-60
2023/06/16 09:34:17;;;;;;;21.13;12.73;;;;;;;;;;6256419;28;20539;-58
2023/06/16 09:37:19;;;;;;;20.20;13.32;;;;;;;;;;6258375;28;20064;-60
2023/06/16 09:40:28;;;;;;;18.67;12.32;;;;;;;;;;6260163;28;20134;-60
2023/06/16 09:43:29;;;;;;;23.88;12.68;;;;;;;;;;6255294;28;20144;-59
2023/06/16 09:46:30;;;;;;;22.30;12.57;;;;;;;;;;6256819;28;20052;-60
2023/06/16 09:49:31;;;;;;;21.70;12.20;;;;;;;;;;6257956;28;20102;-59
2023/06/16 09:52:33;;;;;;;17.07;12.30;;;;;;;;;;6255419;28;20294;-60
2023/06/16 09:55:38;;;;;;;22.15;12.63;;;;;;;;;;6257998;28;20086;-60
2023/06/16 09:58:39;;;;;;;18.00;10.63;;;;;;;;;;6257633;28;20052;-60
2023/06/16 10:01:43;;;;;;;24.00;13.90;;;;;;;;;;6257756;28;20067;-60
2023/06/16 10:04:45;;;;;;;17.42;11.45;;;;;;;;;;6256813;28;20464;-58
2023/06/16 10:07:48;;;;;;;19.02;12.13;;;;;;;;;;6254272;28;20057;-58
2023/06/16 10:10:51;;;;;;;18.35;12.50;;;;;;;;;;6264422;28;20465;-58
2023/06/16 10:13:54;;;;;;;18.10;11.30;;;;;;;;;;6262128;28;20045;-59
2023/06/16 10:16:56;;;;;;;19.17;11.85;;;;;;;;;;6257661;28;20084;-57
2023/06/16 10:19:57;;;;;;;16.55;10.73;;;;;;;;;;6289378;28;20135;-57
2023/06/16 10:23:02;;;;;;;17.00;11.23;;;;;;;;;;6258433;28;20048;-59
2023/06/16 10:26:05;;;;;;;20.92;10.80;;;;;;;;;;6264716;28;20282;-58
2023/06/16 10:29:06;;;;;;;17.70;10.77;;;;;;;;;;6258844;28;20052;-58
2023/06/16 10:32:08;;;;;;;16.65;11.00;;;;;;;;;;6261697;28;20139;-58
2023/06/16 10:35:10;;;;;;;18.42;10.77;;;;;;;;;;6261325;28;20083;-56
2023/06/16 10:38:10;;;;;;;18.58;10.18;;;;;;;;;;6256212;28;20041;-58
2023/06/16 10:41:14;;;;;;;18.00;10.47;;;;;;;;;;6263269;28;20378;-58
2023/06/16 10:44:31;;;;;;;17.50;10.30;;;;;;;;;;6252948;28;20084;-59
2023/06/16 10:47:31;;;;;;;18.27;10.70;;;;;;;;;;6251490;28;20056;-57
2023/06/16 10:50:42;;;;;;;17.17;10.77;;;;;;;;;;6254429;28;20049;-59
2023/06/16 10:53:43;;;;;;;19.63;10.88;;;;;;;;;;6250695;28;20091;-59
2023/06/16 10:57:01;;;;;;;18.13;11.30;;;;;;;;;;6250554;28;20057;-59
2023/06/16 11:00:10;;;;;;;19.17;11.02;;;;;;;;;;6250482;28;20033;-58
2023/06/16 11:03:12;;;;;;;15.50;10.57;;;;;;;;;;6254651;28;20160;-58
2023/06/16 11:06:13;;;;;;;18.27;10.95;;;;;;;;;;6250217;28;20052;-59
2023/06/16 11:09:13;;;;;;;22.10;11.50;;;;;;;;;;6252308;28;20053;-59
2023/06/16 11:12:15;;;;;;;19.90;11.33;;;;;;;;;;6254645;28;20509;-58
2023/06/16 11:15:16;;;;;;;20.33;11.20;;;;;;;;;;6253672;28;20044;-58
2023/06/16 11:18:18;;;;;;;17.70;11.43;;;;;;;;;;6251471;28;20456;-60
2023/06/16 11:21:19;;;;;;;15.60;10.40;;;;;;;;;;6255288;28;20045;-57
2023/06/16 11:24:20;;;;;;;15.47;11.00;;;;;;;;;;6254480;28;20479;-57
2023/06/16 11:27:21;;;;;;;16.37;11.20;;;;;;;;;;6256128;28;20051;-59
2023/06/16 11:30:21;;;;;;;16.17;10.97;;;;;;;;;;6259782;28;20346;-59
2023/06/16 11:33:22;;;;;;;16.60;10.97;;;;;;;;;;6258823;28;20049;-59
2023/06/16 11:36:23;;;;;;;19.55;12.23;;;;;;;;;;6257995;28;20057;-60
2023/06/16 11:39:24;;;;;;;20.35;12.13;;;;;;;;;;6255537;28;20041;-59
2023/06/16 11:42:25;;;;;;;19.97;11.50;;;;;;;;;;6255087;28;20099;-61
2023/06/16 11:45:28;;;;;;;22.58;12.52;;;;;;;;;;6256167;28;20057;-60
2023/06/16 11:48:29;;;;;;;18.98;11.90;;;;;;;;;;6253928;28;20160;-60
2023/06/16 11:51:30;;;;;;;;;;;;;;;;;;6258459;28;20070;-59
2023/06/16 11:54:32;;;;;;;20.38;11.48;;;;;;;;;;6258508;28;19924;-59
2023/06/16 11:57:39;;;;;;;17.23;11.05;;;;;;;;;;6254632;28;20113;-59
2023/06/16 12:00:40;;;;;;;18.05;11.63;;;;;;;;;;6258655;28;20047;-60
2023/06/16 12:03:42;;;;;;;16.80;11.13;;;;;;;;;;6258214;28;20053;-60
2023/06/16 12:06:42;;;;;;;;;;;;;;;;;;6256348;28;20761;-60
2023/06/16 12:09:43;;;;;;;18.90;11.55;;;;;;;;;;6257751;28;19935;-60
2023/06/16 12:12:45;;;;;;;14.57;10.93;;;;;;;;;;6258599;28;20049;-59
2023/06/16 12:15:45;;;;;;;17.92;12.18;;;;;;;;;;6256810;28;20126;-60
2023/06/16 12:18:53;;;;;;;21.27;13.03;;;;;;;;;;6254806;28;20041;-59
2023/06/16 12:22:01;;;;;;;18.73;12.00;;;;;;;;;;6251451;28;21203;-58
2023/06/16 12:25:02;;;;;;;19.40;11.80;;;;;;;;;;6246790;28;20096;-59
2023/06/16 12:28:03;;;;;;;19.80;12.03;;;;;;;;;;6241689;28;20489;-59
2023/06/16 12:31:03;;;;;;;22.27;12.53;;;;;;;;;;6245971;28;20045;-58
2023/06/16 12:34:04;;;;;;;20.40;11.20;;;;;;;;;;6245751;28;20513;-58
2023/06/16 12:37:07;;;;;;;18.40;12.70;;;;;;;;;;6241901;28;20441;-59
2023/06/16 12:40:11;;;;;;;21.60;13.18;;;;;;;;;;6246897;28;20068;-58
2023/06/16 12:43:25;;;;;;;21.67;12.48;;;;;;;;;;6247780;28;20049;-59
2023/06/16 12:46:25;;;;;;;20.52;12.70;;;;;;;;;;6249703;28;20041;-59
2023/06/16 12:49:26;;;;;;;20.87;11.93;;;;;;;;;;6243015;28;20048;-58
2023/06/16 12:52:29;;;;;;;18.27;12.43;;;;;;;;;;6248305;28;20642;-59
2023/06/16 12:55:29;;;;;;;21.05;12.55;;;;;;;;;;6246611;28;20075;-59
2023/06/16 12:58:30;;;;;;;19.27;12.60;;;;;;;;;;6243766;28;20500;-59
2023/06/16 13:01:30;;;;;;;20.20;13.13;;;;;;;;;;6252318;28;20364;-59
2023/06/16 13:04:31;;;;;;;23.07;13.57;;;;;;;;;;6254960;28;20061;-59
2023/06/16 13:07:32;;;;;;;28.13;16.93;;;;;;;;;;6250368;28;20055;-60
2023/06/16 13:10:32;;;;;;;29.10;17.10;;;;;;;;;;6254217;28;20120;-59
2023/06/16 13:13:33;;;;;;;27.00;17.07;;;;;;;;;;6255514;28;20570;-59
2023/06/16 13:16:34;;;;;;;26.23;14.50;;;;;;;;;;6254197;28;20099;-59
2023/06/16 13:19:34;;;;;;;24.37;14.70;;;;;;;;;;6251163;28;20312;-59
2023/06/16 13:22:35;;;;;;;23.52;14.52;;;;;;;;;;6253460;28;20052;-59
2023/06/16 13:25:36;;;;;;;24.90;13.70;;;;;;;;;;6252064;28;20057;-59
2023/06/16 13:28:38;;;;;;;24.40;13.80;;;;;;;;;;6248625;28;20087;-60
2023/06/16 13:31:39;;;;;;;20.85;12.65;;;;;;;;;;6254751;28;20049;-59
2023/06/16 13:34:40;;;;;;;24.20;13.03;;;;;;;;;;6255542;28;20048;-58
2023/06/16 13:37:40;;;;;;;24.17;12.70;;;;;;;;;;6250071;28;20049;-59
2023/06/16 13:40:41;;;;;;;25.80;13.47;;;;;;;;;;6253265;28;20059;-59
2023/06/16 13:43:44;;;;;;;26.60;12.93;;;;;;;;;;6254354;28;21499;-59
2023/06/16 13:46:44;;;;;;;24.90;12.90;;;;;;;;;;6251429;28;20415;-59
2023/06/16 13:49:45;;;;;;;23.33;13.03;;;;;;;;;;6251891;28;20044;-59
2023/06/16 13:52:46;;;;;;;20.65;12.93;;;;;;;;;;6252678;28;20057;-58
2023/06/16 13:55:47;;;;;;;25.57;14.70;;;;;;;;;;6253799;28;20408;-59
2023/06/16 13:58:47;;;;;;;27.23;15.23;;;;;;;;;;6250442;28;20569;-60
2023/06/16 14:01:48;;;;;;;28.37;17.83;;;;;;;;;;6251545;28;20049;-59
2023/06/16 14:04:49;;;;;;;31.67;17.20;;;;;;;;;;6247777;28;20140;-58
2023/06/16 14:07:50;;;;;;;29.43;15.73;;;;;;;;;;6249335;28;20450;-60
2023/06/16 14:10:51;;;;;;;27.83;16.10;;;;;;;;;;6252670;28;20045;-59
2023/06/16 14:13:52;;;;;;;26.80;16.10;;;;;;;;;;6250689;28;20676;-59
2023/06/16 14:16:53;;;;;;;26.98;13.68;;;;;;;;;;6249664;28;20389;-59
2023/06/16 14:19:53;;;;;;;22.00;12.70;;;;;;;;;;6254029;28;20215;-59
2023/06/16 14:22:55;;;;;;;27.73;14.23;;;;;;;;;;6248879;28;20049;-59
2023/06/16 14:25:56;;;;;;;20.08;13.77;;;;;;;;;;6253492;28;20483;-59
2023/06/16 14:28:56;;;;;;;24.20;13.60;;;;;;;;;;6248434;28;20040;-59
2023/06/16 14:31:57;;;;;;;21.77;12.50;;;;;;;;;;6246350;28;20049;-60
2023/06/16 14:34:58;;;;;;;23.33;14.20;;;;;;;;;;6248228;28;20094;-58
2023/06/16 14:37:58;;;;;;;25.23;13.47;;;;;;;;;;6243417;28;20052;-59
2023/06/16 14:40:59;;;;;;;25.60;14.10;;;;;;;;;;6247252;28;20044;-59
2023/06/16 14:43:59;;;;;;;26.30;15.43;;;;;;;;;;6243271;28;20053;-59
2023/06/16 14:47:00;;;;;;;24.03;15.77;;;;;;;;;;6242552;28;20091;-59
2023/06/16 14:50:00;;;;;;;24.27;15.27;;;;;;;;;;6242485;28;20625;-60
2023/06/16 14:53:01;;;;;;;28.50;15.23;;;;;;;;;;6246310;28;20508;-59
2023/06/16 14:56:01;;;;;;;25.00;14.40;;;;;;;;;;6242445;28;20230;-59
2023/06/16 14:59:03;;;;;;;28.40;15.47;;;;;;;;;;6242925;28;21110;-59
2023/06/16 15:02:04;;;;;;;23.98;16.27;;;;;;;;;;6246166;28;20406;-58
2023/06/16 15:05:06;;;;;;;29.90;17.15;;;;;;;;;;6247158;28;20049;-59
2023/06/16 15:08:06;;;;;;;30.17;17.40;;;;;;;;;;6244129;28;20114;-59
2023/06/16 15:11:07;;;;;;;29.43;17.70;;;;;;;;;;6245403;28;20079;-57
2023/06/16 15:14:08;;;;;;;28.27;17.07;;;;;;;;;;6245380;28;20033;-60
2023/06/16 15:17:09;;;;;;;28.33;17.05;;;;;;;;;;6244493;28;20049;-60
2023/06/16 15:20:10;;;;;;;28.53;16.53;;;;;;;;;;6244043;28;21261;-59
2023/06/16 15:23:11;;;;;;;25.90;16.48;;;;;;;;;;6246373;28;20067;-59
2023/06/16 15:26:11;;;;;;;23.97;15.23;;;;;;;;;;6244157;28;20469;-59
2023/06/16 15:29:14;;;;;;;30.87;16.40;;;;;;;;;;6243106;28;20578;-62
2023/06/16 15:32:15;;;;;;;30.00;16.17;;;;;;;;;;6244460;28;20072;-60
2023/06/16 15:35:16;;;;;;;24.03;15.73;;;;;;;;;;6251533;28;20420;-60
2023/06/16 15:38:16;;;;;;;23.60;15.40;;;;;;;;;;6246534;28;20071;-59
2023/06/16 15:41:17;;;;;;;25.90;17.63;;;;;;;;;;6253788;28;20152;-59
2023/06/16 15:44:18;;;;;;;35.57;19.40;;;;;;;;;;6254320;28;20049;-60
2023/06/16 15:47:18;;;;;;;31.70;17.87;;;;;;;;;;6251214;28;20853;-59
2023/06/16 15:50:19;;;;;;;29.63;18.53;;;;;;;;;;6253747;28;20285;-60
2023/06/16 15:53:19;;;;;;;31.83;18.17;;;;;;;;;;6253781;28;20053;-58
2023/06/16 15:56:20;;;;;;;25.63;17.33;;;;;;;;;;6250835;28;20494;-60
2023/06/16 15:59:21;;;;;;;29.40;14.75;;;;;;;;;;6250481;28;20139;-59
2023/06/16 16:02:21;;;;;;;23.37;14.67;;;;;;;;;;6253062;28;20480;-59
2023/06/16 16:05:22;;;;;;;24.77;14.93;;;;;;;;;;6251779;28;20639;-59
2023/06/16 16:08:22;;;;;;;24.73;15.47;;;;;;;;;;6251019;28;20297;-60
2023/06/16 16:11:23;;;;;;;30.77;15.25;;;;;;;;;;6253825;28;20045;-59
2023/06/16 16:14:24;;;;;;;23.43;16.20;;;;;;;;;;6255759;28;20068;-59
2023/06/16 16:17:25;;;;;;;24.40;14.65;;;;;;;;;;6254929;28;20424;-60
2023/06/16 16:20:26;;;;;;;;;;;;;;;;;;6258087;28;20056;-60
2023/06/16 16:23:27;;;;;;;26.27;15.50;;;;;;;;;;6258468;28;19929;-60
2023/06/16 16:26:27;;;;;;;30.03;16.40;;;;;;;;;;6254090;28;20159;-61
2023/06/16 16:29:28;;;;;;;25.20;16.13;;;;;;;;;;6255380;28;20297;-61
2023/06/16 16:32:28;;;;;;;27.73;16.40;;;;;;;;;;6256819;28;20053;-60
2023/06/16 16:35:29;;;;;;;24.97;15.10;;;;;;;;;;6256429;28;20057;-61
2023/06/16 16:38:31;;;;;;;24.40;16.03;;;;;;;;;;6254635;28;20053;-59
2023/06/16 16:41:32;;;;;;;25.42;16.73;;;;;;;;;;6257915;28;20663;-61
2023/06/16 16:44:33;;;;;;;28.33;17.53;;;;;;;;;;6257046;28;20052;-61
2023/06/16 16:47:34;;;;;;;;;;;;;;;;;;6254250;28;20045;-61
2023/06/16 16:50:34;;;;;;;32.60;19.17;;;;;;;;;;6257537;28;19929;-61
2023/06/16 16:53:35;;;;;;;35.10;20.77;;;;;;;;;;6257163;28;20061;-60
2023/06/16 16:56:36;;;;;;;27.90;19.40;;;;;;;;;;6254820;28;20355;-60
2023/06/16 16:59:36;;;;;;;31.05;20.42;;;;;;;;;;6256006;28;20045;-60
2023/06/16 17:02:37;;;;;;;29.30;19.40;;;;;;;;;;6256576;28;20056;-60
2023/06/16 17:05:38;;;;;;;32.35;19.60;;;;;;;;;;6254944;28;20068;-60
2023/06/16 17:08:38;;;;;;;31.67;20.17;;;;;;;;;;6253019;28;20683;-59
2023/06/16 17:11:39;;;;;;;37.70;20.85;;;;;;;;;;6256525;28;20154;-60
2023/06/16 17:14:40;;;;;;;31.00;21.27;;;;;;;;;;6255591;28;20041;-62
2023/06/16 17:17:40;;;;;;;37.00;21.07;;;;;;;;;;6253366;28;20215;-60
2023/06/16 17:20:41;;;;;;;33.40;20.13;;;;;;;;;;6256198;28;20052;-61
2023/06/16 17:23:43;;;;;;;37.30;21.50;;;;;;;;;;6255493;28;20052;-60
2023/06/16 17:26:44;;;;;;;37.55;21.10;;;;;;;;;;6253535;28;20865;-60
2023/06/16 17:29:44;;;;;;;32.70;21.02;;;;;;;;;;6256127;28;20144;-61
2023/06/16 17:32:45;;;;;;;37.13;21.80;;;;;;;;;;6256071;28;20459;-61
2023/06/16 17:35:45;;;;;;;34.23;21.93;;;;;;;;;;6254733;28;20110;-61
2023/06/16 17:38:47;;;;;;;36.30;21.37;;;;;;;;;;6254965;28;20044;-62
2023/06/16 17:41:48;;;;;;;33.70;21.63;;;;;;;;;;6255976;28;20479;-60